Time;durP1;ratioP1;P1;durP2;ratioP2;P2;SDS_P1;SDS_P2;PMS_P1;PMS_P2;Temp;Humidity;BMP_temperature;BMP_pressure;BME280_temperature;BME280_humidity;BME280_pressure;Samples;Min_cycle;Max_cycle;Signal;HPM_P1;HPM_P2
2023/08/11 00:01:28;;;;;;;9.70;6.40;;;;;;;-140.66;100.00;55571.53;5135535;27;20393;-72
2023/08/11 00:05:13;;;;;;;6.95;6.25;;;;;;;-140.66;100.00;55571.53;5135957;27;20033;-73
2023/08/11 00:08:57;;;;;;;7.15;6.20;;;;;;;-140.66;100.00;55571.53;5134182;27;20019;-73
2023/08/11 00:12:41;;;;;;;7.47;6.63;;;;;;;-140.66;100.00;55571.53;5134862;27;20480;-70
2023/08/11 00:16:26;;;;;;;7.80;6.95;;;;;;;-140.66;100.00;55571.53;5135667;27;20035;-74
2023/08/11 00:20:10;;;;;;;9.02;7.05;;;;;;;-140.66;100.00;55571.53;5134640;27;20038;-73
2023/08/11 00:23:55;;;;;;;10.60;7.20;;;;;;;-140.66;100.00;55571.53;5133918;27;20023;-72
2023/08/11 00:27:39;;;;;;;8.63;7.43;;;;;;;-140.66;100.00;55571.53;5135108;27;20023;-72
2023/08/11 00:31:23;;;;;;;11.02;8.43;;;;;;;-140.66;100.00;55571.53;5134714;27;20088;-72
2023/08/11 00:35:07;;;;;;;10.25;7.90;;;;;;;-140.66;100.00;55571.53;5135131;27;20468;-72
2023/08/11 00:38:52;;;;;;;9.95;8.23;;;;;;;-140.66;100.00;55571.53;5134232;27;20023;-72
2023/08/11 00:42:36;;;;;;;8.93;7.47;;;;;;;-140.66;100.00;55571.53;5134445;27;20114;-71
2023/08/11 00:46:22;;;;;;;12.20;7.72;;;;;;;-140.66;100.00;55571.53;5134259;27;20030;-72
2023/08/11 00:50:07;;;;;;;10.52;8.07;;;;;;;-140.66;100.00;55571.53;5133688;28;20461;-71
2023/08/11 00:53:51;;;;;;;12.02;7.97;;;;;;;-140.66;100.00;55571.53;5134324;28;20429;-73
2023/08/11 00:57:37;;;;;;;8.85;7.57;;;;;;;-140.66;100.00;55571.53;5132999;28;20023;-72
2023/08/11 01:01:24;;;;;;;9.93;8.05;;;;;;;-140.66;100.00;55571.53;5133515;28;20041;-73
2023/08/11 01:05:10;;;;;;;9.73;7.68;;;;;;;-140.66;100.00;55571.53;5138452;27;20015;-74
2023/08/11 01:09:32;;;;;;;10.30;8.05;;;;;;;-140.66;100.00;55571.53;5138272;27;20313;-73
2023/08/11 01:13:34;;;;;;;8.20;7.15;;;;;;;-140.66;100.00;55571.53;5138149;27;20019;-71
2023/08/11 01:17:20;;;;;;;12.35;8.00;;;;;;;-140.66;100.00;55571.53;5138316;27;20027;-72
2023/08/11 01:21:09;;;;;;;8.70;7.80;;;;;;;-140.66;100.00;55571.53;5138124;27;20019;-72
2023/08/11 01:24:54;;;;;;;9.15;8.23;;;;;;;-140.66;100.00;55571.53;5138480;27;20042;-72
2023/08/11 01:28:42;;;;;;;11.40;8.02;;;;;;;-140.66;100.00;55571.53;5138281;27;20071;-72
2023/08/11 01:32:26;;;;;;;8.02;7.15;;;;;;;-140.66;100.00;55571.53;5139122;27;20364;-72
2023/08/11 01:36:10;;;;;;;9.93;8.30;;;;;;;-140.66;100.00;55571.53;5137829;27;20019;-71
2023/08/11 01:39:55;;;;;;;10.77;7.72;;;;;;;-140.66;100.00;55571.53;5137849;27;20429;-72
2023/08/11 01:43:41;;;;;;;9.48;7.82;;;;;;;-140.66;100.00;55571.53;5138578;27;20042;-72
2023/08/11 01:47:25;;;;;;;11.00;8.05;;;;;;;-140.66;100.00;55571.53;5137714;27;20031;-72
2023/08/11 01:51:10;;;;;;;10.73;8.52;;;;;;;-140.66;100.00;55571.53;5138204;27;20456;-72
2023/08/11 01:54:55;;;;;;;10.18;7.95;;;;;;;-140.66;100.00;55571.53;5137800;27;20023;-72
2023/08/11 01:58:39;;;;;;;13.40;8.25;;;;;;;-140.66;100.00;55571.53;5137545;27;20023;-72
2023/08/11 02:02:24;;;;;;;9.80;7.75;;;;;;;-140.66;100.00;55571.53;5137636;27;20069;-72
2023/08/11 02:06:09;;;;;;;9.35;7.82;;;;;;;-140.66;100.00;55571.53;5137223;27;20038;-72
2023/08/11 02:09:54;;;;;;;10.73;8.02;;;;;;;-140.66;100.00;55571.53;5137085;27;20117;-71
2023/08/11 02:13:39;;;;;;;8.73;7.50;;;;;;;-140.66;100.00;55571.53;5135596;27;20034;-71
2023/08/11 02:17:23;;;;;;;10.48;8.10;;;;;;;-140.66;100.00;55571.53;5136797;27;20360;-72
2023/08/11 02:21:09;;;;;;;9.23;8.20;;;;;;;-140.66;100.00;55571.53;5136955;27;20027;-72
2023/08/11 02:24:53;;;;;;;11.82;7.63;;;;;;;-140.66;100.00;55571.53;5136972;27;20464;-72
2023/08/11 02:28:38;;;;;;;10.98;8.32;;;;;;;-140.66;100.00;55571.53;5136459;27;20038;-72
2023/08/11 02:32:22;;;;;;;10.30;7.75;;;;;;;-140.66;100.00;55571.53;5137007;27;20053;-73
2023/08/11 02:36:06;;;;;;;11.27;7.68;;;;;;;-140.66;100.00;55571.53;5137777;27;20471;-72
2023/08/11 02:39:51;;;;;;;9.60;7.43;;;;;;;-140.66;100.00;55571.53;5136089;27;20342;-72
2023/08/11 02:43:36;;;;;;;9.20;7.10;;;;;;;-140.66;100.00;55571.53;5136148;27;20019;-72
2023/08/11 02:47:21;;;;;;;9.63;7.68;;;;;;;-140.66;100.00;55571.53;5136031;27;20443;-72
2023/08/11 02:51:05;;;;;;;8.93;7.20;;;;;;;-140.66;100.00;55571.53;5136677;27;20110;-72
2023/08/11 02:54:49;;;;;;;11.23;7.05;;;;;;;-140.66;100.00;55571.53;5137412;27;20030;-72
2023/08/11 02:58:34;;;;;;;7.90;6.95;;;;;;;-140.66;100.00;55571.53;5136104;27;20596;-72
2023/08/11 03:02:18;;;;;;;8.82;7.93;;;;;;;-140.66;100.00;55571.53;5136049;27;20039;-73
2023/08/11 03:06:04;;;;;;;8.48;7.13;;;;;;;-140.66;100.00;55571.53;5137251;27;20447;-72
2023/08/11 03:09:48;;;;;;;7.35;6.65;;;;;;;-140.66;100.00;55571.53;5141658;27;20360;-72
2023/08/11 03:13:32;;;;;;;8.35;6.90;;;;;;;-140.66;100.00;55571.53;5147271;27;20034;-71
2023/08/11 03:17:17;;;;;;;8.23;7.15;;;;;;;-140.66;100.00;55571.53;5136365;27;20027;-72
2023/08/11 03:21:02;;;;;;;11.05;7.15;;;;;;;-140.66;100.00;55571.53;5135848;27;20314;-71
2023/08/11 03:24:46;;;;;;;11.73;7.38;;;;;;;-140.66;100.00;55571.53;5135718;27;20023;-72
2023/08/11 03:28:30;;;;;;;7.50;6.70;;;;;;;-140.66;100.00;55571.53;5135661;27;20035;-72
2023/08/11 03:32:15;;;;;;;7.57;6.85;;;;;;;-140.66;100.00;55571.53;5135810;27;20050;-73
2023/08/11 03:35:59;;;;;;;9.65;7.30;;;;;;;-140.66;100.00;55571.53;5135779;27;20106;-72
2023/08/11 03:39:43;;;;;;;9.65;7.90;;;;;;;-140.66;100.00;55571.53;5144001;27;20310;-72
2023/08/11 03:43:27;;;;;;;9.00;7.70;;;;;;;-140.66;100.00;55571.53;5144033;27;20019;-72
2023/08/11 03:47:12;;;;;;;9.90;8.23;;;;;;;-140.66;100.00;55571.53;5135094;27;20023;-72
2023/08/11 03:51:02;;;;;;;9.70;7.10;;;;;;;-140.66;100.00;55571.53;5135936;27;20035;-71
2023/08/11 03:54:46;;;;;;;7.97;6.72;;;;;;;-140.66;100.00;55571.53;5135346;27;20513;-72
2023/08/11 03:58:30;;;;;;;8.93;7.10;;;;;;;-140.66;100.00;55571.53;5134940;27;20428;-73
2023/08/11 04:02:16;;;;;;;11.75;8.48;;;;;;;-140.66;100.00;55571.53;5135395;27;20027;-73
2023/08/11 04:06:01;;;;;;;8.35;7.53;;;;;;;-140.66;100.00;55571.53;5135399;27;20102;-73
2023/08/11 04:09:46;;;;;;;9.38;6.88;;;;;;;-140.66;100.00;55571.53;5134183;27;20054;-72
2023/08/11 04:13:30;;;;;;;8.00;7.05;;;;;;;-140.66;100.00;55571.53;5135884;27;20037;-72
2023/08/11 04:17:16;;;;;;;9.35;7.03;;;;;;;-140.66;100.00;55571.53;5134986;27;20054;-72
2023/08/11 04:21:01;;;;;;;9.13;6.72;;;;;;;-140.66;100.00;55571.53;5134430;27;20058;-73
2023/08/11 04:24:54;;;;;;;8.45;6.93;;;;;;;-140.66;100.00;55571.53;5134679;27;20428;-72
2023/08/11 04:28:38;;;;;;;7.63;6.82;;;;;;;-140.66;100.00;55571.53;5133224;27;20030;-72
2023/08/11 04:32:23;;;;;;;8.00;7.18;;;;;;;-140.66;100.00;55571.53;5135665;27;20359;-72
2023/08/11 04:36:07;;;;;;;7.88;7.07;;;;;;;-140.66;100.00;55571.53;5134996;27;20023;-73
2023/08/11 04:39:51;;;;;;;9.57;7.30;;;;;;;-140.66;100.00;55571.53;5134626;27;20457;-72
2023/08/11 04:43:36;;;;;;;10.02;7.53;;;;;;;-140.66;100.00;55571.53;5135179;27;20114;-72
2023/08/11 04:47:20;;;;;;;8.95;7.30;;;;;;;-140.66;100.00;55571.53;5133736;27;20095;-72
2023/08/11 04:51:05;;;;;;;8.27;6.90;;;;;;;-140.66;100.00;55571.53;5134244;27;20027;-72
2023/08/11 04:54:50;;;;;;;8.68;6.78;;;;;;;-140.66;100.00;55571.53;5136165;28;20333;-72
2023/08/11 04:58:35;;;;;;;10.02;8.35;;;;;;;-140.66;100.00;55571.53;5133394;28;20102;-72
2023/08/11 05:02:22;;;;;;;15.45;8.10;;;;;;;-140.66;100.00;55571.53;5134441;28;20023;-73
2023/08/11 05:06:06;;;;;;;10.88;8.38;;;;;;;-140.66;100.00;55571.53;5133653;28;20023;-72
2023/08/11 05:09:51;;;;;;;11.20;9.00;;;;;;;-140.66;100.00;55571.53;5133678;28;20038;-73
2023/08/11 05:13:36;;;;;;;13.00;7.57;;;;;;;-140.66;100.00;55571.53;5133909;28;20031;-72
2023/08/11 05:17:21;;;;;;;10.38;7.75;;;;;;;-140.66;100.00;55571.53;5135168;28;20099;-73
2023/08/11 05:21:05;;;;;;;9.82;6.95;;;;;;;-140.66;100.00;55571.53;5133611;28;20028;-72
2023/08/11 05:24:50;;;;;;;8.00;6.78;;;;;;;-140.66;100.00;55571.53;5134616;28;20391;-72
2023/08/11 05:28:34;;;;;;;8.25;6.53;;;;;;;-140.66;100.00;55571.53;5134281;28;20422;-72
2023/08/11 05:32:18;;;;;;;10.38;7.20;;;;;;;-140.66;100.00;55571.53;5134947;28;20370;-73
2023/08/11 05:36:03;;;;;;;10.05;7.53;;;;;;;-140.66;100.00;55571.53;5134788;28;20023;-72
2023/08/11 05:39:47;;;;;;;11.55;7.53;;;;;;;-140.66;100.00;55571.53;5134343;28;20062;-72
2023/08/11 05:43:31;;;;;;;10.60;7.38;;;;;;;-140.66;100.00;55571.53;5134455;28;20031;-73
2023/08/11 05:47:15;;;;;;;12.07;8.55;;;;;;;-140.66;100.00;55571.53;5133452;28;20038;-72
2023/08/11 05:51:00;;;;;;;10.60;7.63;;;;;;;-140.66;100.00;55571.53;5138099;27;20099;-72
2023/08/11 05:54:44;;;;;;;8.32;7.32;;;;;;;-140.66;100.00;55571.53;5138126;27;20031;-72
2023/08/11 05:58:28;;;;;;;11.70;7.35;;;;;;;-140.66;100.00;55571.53;5137190;27;20440;-73
2023/08/11 06:02:14;;;;;;;9.27;7.78;;;;;;;-140.66;100.00;55571.53;5139171;27;20023;-71
2023/08/11 06:06:04;;;;;;;9.90;7.68;;;;;;;-140.66;100.00;55571.53;5137376;27;20049;-73
2023/08/11 06:09:48;;;;;;;8.23;6.78;;;;;;;-140.66;100.00;55571.53;5136856;27;20110;-72
2023/08/11 06:13:33;;;;;;;13.63;7.85;;;;;;;-140.66;100.00;55571.53;5136896;27;20095;-72
2023/08/11 06:17:17;;;;;;;8.70;6.72;;;;;;;-140.66;100.00;55571.53;5136813;27;20076;-73
2023/08/11 06:21:04;;;;;;;10.55;7.10;;;;;;;-140.66;100.00;55571.53;5138578;27;20037;-73
2023/08/11 06:24:48;;;;;;;9.02;7.38;;;;;;;-140.66;100.00;55571.53;5136803;27;20105;-72
2023/08/11 06:28:32;;;;;;;9.77;6.60;;;;;;;-140.66;100.00;55571.53;5155293;27;20064;-71
2023/08/11 06:32:17;;;;;;;9.52;7.60;;;;;;;-140.66;100.00;55571.53;5136626;27;20027;-73
2023/08/11 06:36:01;;;;;;;11.52;7.78;;;;;;;-140.66;100.00;55571.53;5136982;27;20019;-71
2023/08/11 06:39:46;;;;;;;12.05;7.82;;;;;;;-140.66;100.00;55571.53;5136343;27;20106;-72
2023/08/11 06:43:30;;;;;;;13.50;7.75;;;;;;;-140.66;100.00;55571.53;5137047;27;20023;-72
2023/08/11 06:47:14;;;;;;;11.63;7.50;;;;;;;-140.66;100.00;55571.53;5136384;27;20392;-73
2023/08/11 06:50:58;;;;;;;9.27;7.28;;;;;;;-140.66;100.00;55571.53;5137269;27;20027;-71
2023/08/11 06:54:43;;;;;;;9.30;7.10;;;;;;;-140.66;100.00;55571.53;5141628;27;20075;-72
2023/08/11 06:58:27;;;;;;;9.98;7.85;;;;;;;-140.66;100.00;55571.53;5137272;27;20051;-72
2023/08/11 07:02:11;;;;;;;9.93;7.82;;;;;;;-140.66;100.00;55571.53;5135746;27;20532;-74
2023/08/11 07:05:55;;;;;;;7.40;6.63;;;;;;;-140.66;100.00;55571.53;5136667;27;20463;-72
2023/08/11 07:09:40;;;;;;;9.82;7.07;;;;;;;-140.66;100.00;55571.53;5136732;27;20023;-72
2023/08/11 07:13:24;;;;;;;9.48;6.63;;;;;;;-140.66;100.00;55571.53;5135566;27;20031;-72
2023/08/11 07:17:09;;;;;;;10.00;6.65;;;;;;;-140.66;100.00;55571.53;5136225;27;20078;-73
2023/08/11 07:20:53;;;;;;;8.95;7.20;;;;;;;-140.66;100.00;55571.53;5136390;27;20426;-72
2023/08/11 07:24:37;;;;;;;9.10;6.32;;;;;;;-140.66;100.00;55571.53;5136755;27;20176;-73
2023/08/11 07:28:21;;;;;;;7.57;6.80;;;;;;;-140.66;100.00;55571.53;5135369;27;20091;-73
2023/08/11 07:32:06;;;;;;;13.50;7.35;;;;;;;-140.66;100.00;55571.53;5135907;27;20031;-72
2023/08/11 07:35:50;;;;;;;6.82;6.15;;;;;;;-140.66;100.00;55571.53;5136494;27;20115;-73
2023/08/11 07:39:34;;;;;;;8.98;6.55;;;;;;;-140.66;100.00;55571.53;5136378;27;20067;-72
2023/08/11 07:43:18;;;;;;;7.57;6.70;;;;;;;-140.66;100.00;55571.53;5130060;27;20528;-72
2023/08/11 07:47:03;;;;;;;12.73;8.60;;;;;;;-140.66;100.00;55571.53;5135109;27;20027;-73
2023/08/11 07:50:47;;;;;;;8.48;6.50;;;;;;;-140.66;100.00;55571.53;5136477;27;20395;-72
2023/08/11 07:54:32;;;;;;;8.10;7.00;;;;;;;-140.66;100.00;55571.53;5135507;27;20091;-72
2023/08/11 07:58:16;;;;;;;7.07;6.10;;;;;;;-140.66;100.00;55571.53;5135702;27;20141;-72
2023/08/11 08:02:00;;;;;;;9.38;5.93;;;;;;;-140.66;100.00;55571.53;5135043;27;20027;-72
2023/08/11 08:05:44;;;;;;;6.53;5.43;;;;;;;-140.66;100.00;55571.53;5134981;27;20031;-73
2023/08/11 08:09:33;;;;;;;6.88;5.72;;;;;;;-140.66;100.00;55571.53;5134749;27;20027;-72
2023/08/11 08:13:17;;;;;;;8.75;6.50;;;;;;;-140.66;100.00;55571.53;5134889;27;20403;-72
2023/08/11 08:17:02;;;;;;;6.82;5.85;;;;;;;-140.66;100.00;55571.53;5135028;27;20114;-72
2023/08/11 08:20:47;;;;;;;12.13;6.90;;;;;;;-140.66;100.00;55571.53;5135041;27;20023;-73
2023/08/11 08:24:31;;;;;;;8.05;6.18;;;;;;;-140.66;100.00;55571.53;5134666;27;20383;-73
2023/08/11 08:28:15;;;;;;;11.30;6.55;;;;;;;-140.66;100.00;55571.53;5135429;27;20023;-73
2023/08/11 08:31:59;;;;;;;8.00;6.05;;;;;;;-140.66;100.00;55571.53;5135476;27;20023;-72
2023/08/11 08:35:44;;;;;;;8.05;6.18;;;;;;;-140.66;100.00;55571.53;5135311;27;20475;-72
2023/08/11 08:39:28;;;;;;;6.00;5.25;;;;;;;-140.66;100.00;55571.53;5138988;27;20042;-72
2023/08/11 08:43:13;;;;;;;9.18;5.53;;;;;;;-140.66;100.00;55571.53;5145410;27;20429;-72
2023/08/11 08:47:00;;;;;;;9.75;5.88;;;;;;;-140.66;100.00;55571.53;5147009;27;20034;-72
2023/08/11 08:50:45;;;;;;;7.72;5.60;;;;;;;-140.66;100.00;55571.53;5144403;27;20072;-71
2023/08/11 08:54:30;;;;;;;7.18;4.95;;;;;;;-140.66;100.00;55571.53;5142490;28;20031;-72
2023/08/11 08:58:15;;;;;;;7.25;4.70;;;;;;;-140.66;100.00;55571.53;5141833;28;20467;-70
2023/08/11 09:02:00;;;;;;;8.15;5.45;;;;;;;-140.66;100.00;55571.53;5135307;28;20027;-71
2023/08/11 09:05:45;;;;;;;9.35;5.20;;;;;;;-140.66;100.00;55571.53;5135463;28;20114;-72
2023/08/11 09:09:30;;;;;;;8.27;5.70;;;;;;;-140.66;100.00;55571.53;5134826;28;20066;-73
2023/08/11 09:13:15;;;;;;;6.55;5.68;;;;;;;-140.66;100.00;55571.53;5134188;28;20035;-72
2023/08/11 09:17:00;;;;;;;7.63;5.75;;;;;;;-140.66;100.00;55571.53;5133998;28;20106;-73
2023/08/11 09:20:52;;;;;;;14.50;6.25;;;;;;;-140.66;100.00;55571.53;5134475;28;20455;-72
2023/08/11 09:24:37;;;;;;;6.88;5.05;;;;;;;-140.66;100.00;55571.53;5138461;27;20372;-72
2023/08/11 09:28:21;;;;;;;7.72;5.10;;;;;;;-140.66;100.00;55571.53;5140404;27;20029;-73
2023/08/11 09:32:06;;;;;;;6.40;4.95;;;;;;;-140.66;100.00;55571.53;5139168;27;20073;-72
2023/08/11 09:35:30;;;;;;;5.65;5.00;;;;;;;-140.66;100.00;55571.53;5138108;27;20033;-73
2023/08/11 09:39:13;;;;;;;8.23;5.60;;;;;;;-140.66;100.00;55571.53;5136989;27;20027;-73
2023/08/11 09:42:57;;;;;;;8.43;5.25;;;;;;;-140.66;100.00;55571.53;5137608;27;20034;-73
2023/08/11 09:46:42;;;;;;;6.13;4.60;;;;;;;-140.66;100.00;55571.53;5139794;27;20038;-72
2023/08/11 09:50:27;;;;;;;5.55;4.70;;;;;;;-140.66;100.00;55571.53;5139042;27;20039;-72
2023/08/11 09:54:14;;;;;;;5.97;4.63;;;;;;;-140.66;100.00;55571.53;5138684;27;20030;-72
2023/08/11 09:57:59;;;;;;;6.20;5.30;;;;;;;-140.66;100.00;55571.53;5138070;27;20026;-73
2023/08/11 10:01:45;;;;;;;7.32;5.20;;;;;;;-140.66;100.00;55571.53;5136578;27;20054;-73
2023/08/11 10:05:42;;;;;;;8.23;5.35;;;;;;;-140.66;100.00;55571.53;5137157;27;20019;-73
2023/08/11 10:09:28;;;;;;;15.38;5.47;;;;;;;-140.66;100.00;55571.53;5137013;27;20030;-72
2023/08/11 10:13:17;;;;;;;8.50;5.00;;;;;;;-140.66;100.00;55571.53;5136988;27;20023;-72
2023/08/11 10:17:03;;;;;;;7.90;4.70;;;;;;;-140.66;100.00;55571.53;5137685;27;20042;-73
2023/08/11 10:20:51;;;;;;;8.85;5.25;;;;;;;-140.66;100.00;55571.53;5138383;27;20027;-74
2023/08/11 10:24:37;;;;;;;5.40;4.90;;;;;;;-140.66;100.00;55571.53;5138174;27;20035;-73
2023/08/11 10:28:22;;;;;;;7.25;4.10;;;;;;;-140.66;100.00;55571.53;5136740;27;20031;-72
2023/08/11 10:32:09;;;;;;;5.80;4.50;;;;;;;-140.66;100.00;55571.53;5136157;27;20023;-72
2023/08/11 10:35:56;;;;;;;7.47;5.22;;;;;;;-140.66;100.00;55571.53;5135675;27;20023;-71
2023/08/11 10:39:40;;;;;;;7.13;5.10;;;;;;;-140.66;100.00;55571.53;5137083;27;20069;-72
2023/08/11 10:43:29;;;;;;;6.07;5.40;;;;;;;-140.66;100.00;55571.53;5136850;27;20365;-73
2023/08/11 10:47:35;;;;;;;6.38;4.90;;;;;;;-140.66;100.00;55571.53;5136071;27;20058;-72
2023/08/11 10:51:23;;;;;;;5.93;4.80;;;;;;;-140.66;100.00;55571.53;5135478;27;20119;-72
2023/08/11 10:55:07;;;;;;;15.48;4.65;;;;;;;-140.66;100.00;55571.53;5137256;27;20055;-72
2023/08/11 10:59:17;;;;;;;6.82;4.90;;;;;;;-140.66;100.00;55571.53;5137180;27;20110;-72
2023/08/11 11:03:02;;;;;;;6.95;5.20;;;;;;;-140.66;100.00;55571.53;5135723;27;20027;-73
2023/08/11 11:06:47;;;;;;;7.40;5.60;;;;;;;-140.66;100.00;55571.53;5136723;27;20031;-73
2023/08/11 11:10:31;;;;;;;8.98;5.50;;;;;;;-140.66;100.00;55571.53;5136092;27;20027;-72
2023/08/11 11:14:15;;;;;;;6.43;5.57;;;;;;;-140.66;100.00;55571.53;5135266;27;20027;-72
2023/08/11 11:18:00;;;;;;;6.10;5.50;;;;;;;-140.66;100.00;55571.53;5136248;27;20456;-72
2023/08/11 11:21:45;;;;;;;7.10;5.25;;;;;;;-140.66;100.00;55571.53;5136324;27;20031;-72
2023/08/11 11:25:30;;;;;;;6.55;5.75;;;;;;;-140.66;100.00;55571.53;5135958;27;20031;-72
2023/08/11 11:29:14;;;;;;;6.13;5.13;;;;;;;-140.66;100.00;55571.53;5135150;27;20027;-73
2023/08/11 11:32:59;;;;;;;6.85;4.88;;;;;;;-140.66;100.00;55571.53;5136141;27;20041;-74
2023/08/11 11:36:43;;;;;;;9.18;5.80;;;;;;;-140.66;100.00;55571.53;5136037;27;20035;-72
2023/08/11 11:40:28;;;;;;;7.22;5.07;;;;;;;-140.66;100.00;55571.53;5134930;27;20027;-72
2023/08/11 11:44:13;;;;;;;6.20;5.07;;;;;;;-140.66;100.00;55571.53;5134587;27;20019;-75
2023/08/11 11:47:57;;;;;;;7.63;5.00;;;;;;;-140.66;100.00;55571.53;5136046;27;20380;-74
2023/08/11 11:51:42;;;;;;;5.53;5.00;;;;;;;-140.66;100.00;55571.53;5136208;27;20023;-74
2023/08/11 11:55:26;;;;;;;8.00;5.57;;;;;;;-140.66;100.00;55571.53;5135578;27;20171;-74
2023/08/11 11:59:14;;;;;;;8.05;5.65;;;;;;;-140.66;100.00;55571.53;5134649;27;20110;-75
2023/08/11 12:02:59;;;;;;;7.35;5.38;;;;;;;-140.66;100.00;55571.53;5135882;27;20468;-74
2023/08/11 12:06:43;;;;;;;8.57;4.85;;;;;;;-140.66;100.00;55571.53;5136889;27;20340;-73
2023/08/11 12:10:33;;;;;;;8.05;5.28;;;;;;;-140.66;100.00;55571.53;5134693;27;20030;-75
2023/08/11 12:14:18;;;;;;;15.68;5.22;;;;;;;-140.66;100.00;55571.53;5134471;27;20087;-74
2023/08/11 12:18:03;;;;;;;6.30;5.18;;;;;;;-140.66;100.00;55571.53;5135652;27;20110;-74
2023/08/11 12:21:47;;;;;;;5.45;4.95;;;;;;;-140.66;100.00;55571.53;5135915;27;20027;-74
2023/08/11 12:25:32;;;;;;;5.32;4.60;;;;;;;-140.66;100.00;55571.53;5135902;27;20027;-74
2023/08/11 12:29:17;;;;;;;6.93;4.95;;;;;;;-140.66;100.00;55571.53;5134432;27;20027;-75
2023/08/11 12:33:01;;;;;;;10.55;4.78;;;;;;;-140.66;100.00;55571.53;5136692;27;20114;-75
2023/08/11 12:36:46;;;;;;;7.80;4.40;;;;;;;-140.66;100.00;55571.53;5134823;27;20023;-77
2023/08/11 12:40:30;;;;;;;13.60;4.90;;;;;;;-140.66;100.00;55571.53;5134975;27;20356;-74
2023/08/11 12:44:15;;;;;;;7.20;4.72;;;;;;;-140.66;100.00;55571.53;5134989;27;20039;-74
2023/08/11 12:47:59;;;;;;;26.00;6.25;;;;;;;-140.66;100.00;55571.53;5134828;27;20476;-75
2023/08/11 12:51:44;;;;;;;10.90;4.03;;;;;;;-140.66;100.00;55571.53;5134530;27;20031;-74
2023/08/11 12:55:29;;;;;;;4.63;4.10;;;;;;;-140.66;100.00;55571.53;5133637;28;20034;-73
2023/08/11 12:59:13;;;;;;;9.98;5.38;;;;;;;-140.66;100.00;55571.53;5133701;27;20031;-74
2023/08/11 13:02:58;;;;;;;9.65;4.70;;;;;;;-140.66;100.00;55571.53;5134672;28;20039;-73
2023/08/11 13:06:42;;;;;;;4.97;4.07;;;;;;;-140.66;100.00;55571.53;5134919;28;20065;-74
2023/08/11 13:10:26;;;;;;;7.75;4.22;;;;;;;-140.66;100.00;55571.53;5133865;28;20030;-75
2023/08/11 13:14:10;;;;;;;5.47;4.13;;;;;;;-140.66;100.00;55571.53;5133543;28;20059;-71
2023/08/11 13:17:55;;;;;;;12.95;4.65;;;;;;;-140.66;100.00;55571.53;5135115;28;20110;-71
2023/08/11 13:21:39;;;;;;;14.20;4.85;;;;;;;-140.66;100.00;55571.53;5133529;28;20452;-71
2023/08/11 13:25:23;;;;;;;7.15;3.75;;;;;;;-140.66;100.00;55571.53;5133779;28;20088;-71
2023/08/11 13:29:08;;;;;;;4.95;3.90;;;;;;;-140.66;100.00;55571.53;5133419;28;20027;-71
2023/08/11 13:32:52;;;;;;;9.45;4.03;;;;;;;-140.66;100.00;55571.53;5134171;28;20452;-70
2023/08/11 13:36:38;;;;;;;5.05;3.45;;;;;;;-140.66;100.00;55571.53;5134242;28;20026;-71
2023/08/11 13:40:23;;;;;;;4.65;3.05;;;;;;;-140.66;100.00;55571.53;5133765;28;20035;-71
2023/08/11 13:44:07;;;;;;;4.43;3.08;;;;;;;-140.66;100.00;55571.53;5134580;28;20513;-72
2023/08/11 13:47:52;;;;;;;6.35;3.42;;;;;;;-140.66;100.00;55571.53;5132659;28;20066;-70
2023/08/11 13:51:36;;;;;;;4.75;3.22;;;;;;;-140.66;100.00;55571.53;5133306;28;20027;-71
2023/08/11 13:55:20;;;;;;;3.70;3.17;;;;;;;-140.66;100.00;55571.53;5133365;28;20023;-71
2023/08/11 13:59:04;;;;;;;7.05;3.03;;;;;;;-140.66;100.00;55571.53;5134127;28;20122;-71
2023/08/11 14:02:50;;;;;;;3.65;3.22;;;;;;;-140.66;100.00;55571.53;5133119;28;20019;-72
2023/08/11 14:06:34;;;;;;;4.05;2.88;;;;;;;-140.66;100.00;55571.53;5133563;28;20038;-72
2023/08/11 14:10:18;;;;;;;4.68;3.05;;;;;;;-140.66;100.00;55571.53;5134670;27;20027;-72
2023/08/11 14:14:03;;;;;;;39.42;7.80;;;;;;;-140.66;100.00;55571.53;5137294;27;20031;-71
2023/08/11 14:17:47;;;;;;;5.80;3.25;;;;;;;-140.66;100.00;55571.53;5136462;27;20034;-71
2023/08/11 14:21:31;;;;;;;3.50;3.00;;;;;;;-140.66;100.00;55571.53;5137952;27;20031;-73
2023/08/11 14:25:16;;;;;;;7.13;3.47;;;;;;;-140.66;100.00;55571.53;5136810;27;20019;-71
2023/08/11 14:29:01;;;;;;;4.05;3.47;;;;;;;-140.66;100.00;55571.53;5137711;27;20034;-72
2023/08/11 14:32:45;;;;;;;7.10;3.00;;;;;;;-140.66;100.00;55571.53;5136855;27;20114;-72
2023/08/11 14:36:29;;;;;;;4.60;3.28;;;;;;;-140.66;100.00;55571.53;5137830;27;20110;-72
2023/08/11 14:40:14;;;;;;;3.70;3.03;;;;;;;-140.66;100.00;55571.53;5136495;27;20115;-72
2023/08/11 14:43:58;;;;;;;5.78;3.35;;;;;;;-140.66;100.00;55571.53;5137522;27;20378;-72
2023/08/11 14:47:42;;;;;;;7.97;2.80;;;;;;;-140.66;100.00;55571.53;5136834;27;20051;-72
2023/08/11 14:51:26;;;;;;;4.60;2.92;;;;;;;-140.66;100.00;55571.53;5138188;27;20445;-71
2023/08/11 14:55:12;;;;;;;7.25;3.67;;;;;;;-140.66;100.00;55571.53;5136248;27;20035;-72
2023/08/11 14:58:56;;;;;;;9.15;3.60;;;;;;;-140.66;100.00;55571.53;5136504;27;20023;-74
2023/08/11 15:02:40;;;;;;;9.45;3.63;;;;;;;-140.66;100.00;55571.53;5136400;27;20084;-73
2023/08/11 15:06:25;;;;;;;4.50;3.67;;;;;;;-140.66;100.00;55571.53;5135959;27;20031;-73
2023/08/11 15:10:09;;;;;;;8.50;3.47;;;;;;;-140.66;100.00;55571.53;5136915;27;20027;-73
2023/08/11 15:13:53;;;;;;;9.75;3.63;;;;;;;-140.66;100.00;55571.53;5136340;27;20062;-71
2023/08/11 15:17:37;;;;;;;6.65;3.97;;;;;;;-140.66;100.00;55571.53;5136528;27;20465;-71
2023/08/11 15:21:23;;;;;;;7.63;3.78;;;;;;;-140.66;100.00;55571.53;5136611;27;20042;-72
2023/08/11 15:25:08;;;;;;;9.55;3.70;;;;;;;-140.66;100.00;55571.53;5137133;27;20026;-72
2023/08/11 15:28:52;;;;;;;5.72;3.75;;;;;;;-140.66;100.00;55571.53;5136117;27;20027;-71
2023/08/11 15:32:36;;;;;;;4.10;3.60;;;;;;;-140.66;100.00;55571.53;5135818;27;20031;-71
2023/08/11 15:36:20;;;;;;;8.73;4.18;;;;;;;-140.66;100.00;55571.53;5136017;27;20364;-71
2023/08/11 15:40:05;;;;;;;8.95;3.60;;;;;;;-140.66;100.00;55571.53;5135500;27;20051;-71
2023/08/11 15:43:50;;;;;;;6.50;4.20;;;;;;;-140.66;100.00;55571.53;5134667;27;20023;-71
2023/08/11 15:47:34;;;;;;;8.63;4.00;;;;;;;-140.66;100.00;55571.53;5136022;27;20047;-71
2023/08/11 15:51:19;;;;;;;5.93;3.80;;;;;;;-140.66;100.00;55571.53;5135939;27;20019;-72
2023/08/11 15:55:03;;;;;;;5.82;4.70;;;;;;;-140.66;100.00;55571.53;5135173;27;20031;-72
2023/08/11 15:58:47;;;;;;;8.30;4.10;;;;;;;-140.66;100.00;55571.53;5134937;27;20084;-70
2023/08/11 16:02:32;;;;;;;5.00;3.58;;;;;;;-140.66;100.00;55571.53;5135083;27;20019;-71
2023/08/11 16:06:16;;;;;;;8.27;3.85;;;;;;;-140.66;100.00;55571.53;5135083;27;20023;-71
2023/08/11 16:10:00;;;;;;;6.75;3.92;;;;;;;-140.66;100.00;55571.53;5134999;27;20055;-71
2023/08/11 16:13:45;;;;;;;9.77;3.75;;;;;;;-140.66;100.00;55571.53;5135116;27;20119;-71
2023/08/11 16:17:29;;;;;;;7.03;3.85;;;;;;;-140.66;100.00;55571.53;5135846;27;20035;-71
2023/08/11 16:21:13;;;;;;;7.38;3.80;;;;;;;-140.66;100.00;55571.53;5134879;27;20031;-71
2023/08/11 16:24:57;;;;;;;7.40;3.95;;;;;;;-140.66;100.00;55571.53;5135213;27;20456;-71
2023/08/11 16:28:43;;;;;;;5.05;3.67;;;;;;;-140.66;100.00;55571.53;5134237;27;20342;-71
2023/08/11 16:32:27;;;;;;;5.93;3.78;;;;;;;-140.66;100.00;55571.53;5133976;27;20049;-70
2023/08/11 16:36:11;;;;;;;5.57;3.88;;;;;;;-140.66;100.00;55571.53;5134901;27;20084;-71
2023/08/11 16:39:56;;;;;;;6.53;4.10;;;;;;;-140.66;100.00;55571.53;5133927;27;20027;-71
2023/08/11 16:43:40;;;;;;;6.40;3.75;;;;;;;-140.66;100.00;55571.53;5134667;27;20027;-71
2023/08/11 16:47:26;;;;;;;8.80;3.72;;;;;;;-140.66;100.00;55571.53;5135129;27;20103;-70
2023/08/11 16:51:10;;;;;;;5.90;4.15;;;;;;;-140.66;100.00;55571.53;5121024;28;20027;-70
2023/08/11 16:54:55;;;;;;;6.28;3.92;;;;;;;-140.66;100.00;55571.53;5134409;27;20031;-71
2023/08/11 16:58:39;;;;;;;6.55;3.75;;;;;;;-140.66;100.00;55571.53;5133884;28;20027;-71